sensor_id;sensor_type;location;lat;lon;timestamp;pressure;altitude;pressure_sealevel;temperature;humidity
71768;BME280;59604;52.138;5.446;2022-09-27T00:00:40;99851.63;;;9.69;95.46
71768;BME280;59604;52.138;5.446;2022-09-27T00:03:10;99856.25;;;9.67;95.66
71768;BME280;59604;52.138;5.446;2022-09-27T00:05:37;99853.06;;;9.65;95.22
71768;BME280;59604;52.138;5.446;2022-09-27T00:08:04;99857.69;;;9.63;95.57
71768;BME280;59604;52.138;5.446;2022-09-27T00:10:30;99856.88;;;9.62;95.71
71768;BME280;59604;52.138;5.446;2022-09-27T00:12:57;99858.91;;;9.60;96.01
71768;BME280;59604;52.138;5.446;2022-09-27T00:15:24;99867.41;;;9.62;95.93
71768;BME280;59604;52.138;5.446;2022-09-27T00:17:50;99863.56;;;9.65;95.65
71768;BME280;59604;52.138;5.446;2022-09-27T00:20:19;99867.81;;;9.66;95.87
71768;BME280;59604;52.138;5.446;2022-09-27T00:22:47;99861.75;;;9.65;95.54
71768;BME280;59604;52.138;5.446;2022-09-27T00:25:14;99865.75;;;9.68;96.06
71768;BME280;59604;52.138;5.446;2022-09-27T00:27:40;99864.94;;;9.67;95.82
71768;BME280;59604;52.138;5.446;2022-09-27T00:30:08;99860.94;;;9.65;95.84
71768;BME280;59604;52.138;5.446;2022-09-27T00:32:35;99860.09;;;9.64;95.66
71768;BME280;59604;52.138;5.446;2022-09-27T00:35:02;99859.09;;;9.65;95.72
71768;BME280;59604;52.138;5.446;2022-09-27T00:37:29;99858.50;;;9.63;95.98
71768;BME280;59604;52.138;5.446;2022-09-27T00:39:55;99852.66;;;9.61;95.67
71768;BME280;59604;52.138;5.446;2022-09-27T00:42:22;99862.56;;;9.59;95.64
71768;BME280;59604;52.138;5.446;2022-09-27T00:45:00;99856.91;;;9.56;95.47
71768;BME280;59604;52.138;5.446;2022-09-27T00:47:41;99855.28;;;9.55;95.94
71768;BME280;59604;52.138;5.446;2022-09-27T00:50:39;99852.66;;;9.48;95.83
71768;BME280;59604;52.138;5.446;2022-09-27T00:53:17;99857.31;;;9.46;95.52
71768;BME280;59604;52.138;5.446;2022-09-27T00:56:03;99857.53;;;9.44;96.00
71768;BME280;59604;52.138;5.446;2022-09-27T00:58:34;99853.91;;;9.39;95.73
71768;BME280;59604;52.138;5.446;2022-09-27T01:01:05;99860.16;;;9.38;95.69
71768;BME280;59604;52.138;5.446;2022-09-27T01:03:42;99864.81;;;9.36;96.08
71768;BME280;59604;52.138;5.446;2022-09-27T01:06:10;99867.84;;;9.33;95.98
71768;BME280;59604;52.138;5.446;2022-09-27T01:08:37;99875.91;;;9.31;95.79
71768;BME280;59604;52.138;5.446;2022-09-27T01:25:26;99883.00;;;9.17;95.63
71768;BME280;59604;52.138;5.446;2022-09-27T01:36:38;99890.69;;;9.06;95.65
71768;BME280;59604;52.138;5.446;2022-09-27T01:39:22;99899.78;;;9.03;95.43
71768;BME280;59604;52.138;5.446;2022-09-27T01:42:07;99899.16;;;9.01;95.35
71768;BME280;59604;52.138;5.446;2022-09-27T01:44:47;99897.94;;;8.97;95.55
71768;BME280;59604;52.138;5.446;2022-09-27T01:47:18;99893.50;;;8.98;95.86
71768;BME280;59604;52.138;5.446;2022-09-27T01:50:06;99900.38;;;8.99;95.71
71768;BME280;59604;52.138;5.446;2022-09-27T01:52:50;99896.13;;;8.98;95.57
71768;BME280;59604;52.138;5.446;2022-09-27T01:55:21;99904.22;;;8.96;95.57
71768;BME280;59604;52.138;5.446;2022-09-27T01:57:57;99894.72;;;8.95;95.47
71768;BME280;59604;52.138;5.446;2022-09-27T02:00:27;99899.34;;;8.93;95.58
71768;BME280;59604;52.138;5.446;2022-09-27T02:03:07;99894.31;;;8.91;95.37
71768;BME280;59604;52.138;5.446;2022-09-27T02:05:43;99885.81;;;8.89;95.54
71768;BME280;59604;52.138;5.446;2022-09-27T02:08:24;99884.19;;;8.88;95.81
71768;BME280;59604;52.138;5.446;2022-09-27T02:10:55;99887.22;;;8.85;95.66
71768;BME280;59604;52.138;5.446;2022-09-27T02:13:32;99885.00;;;8.82;95.50
71768;BME280;59604;52.138;5.446;2022-09-27T02:18:35;99878.31;;;8.73;95.80
71768;BME280;59604;52.138;5.446;2022-09-27T02:21:09;99878.50;;;8.71;95.77
71768;BME280;59604;52.138;5.446;2022-09-27T02:23:41;99878.72;;;8.70;95.74
71768;BME280;59604;52.138;5.446;2022-09-27T02:26:17;99883.97;;;8.70;95.85
71768;BME280;59604;52.138;5.446;2022-09-27T02:29:30;99881.72;;;8.67;96.04
71768;BME280;59604;52.138;5.446;2022-09-27T02:31:36;99888.00;;;8.66;96.06
71768;BME280;59604;52.138;5.446;2022-09-27T02:34:10;99873.22;;;8.65;95.96
71768;BME280;59604;52.138;5.446;2022-09-27T02:36:39;99876.06;;;8.63;95.64
71768;BME280;59604;52.138;5.446;2022-09-27T02:39:05;99873.66;;;8.62;95.97
71768;BME280;59604;52.138;5.446;2022-09-27T02:41:32;99883.13;;;8.63;96.08
71768;BME280;59604;52.138;5.446;2022-09-27T02:44:03;99869.59;;;8.59;95.78
71768;BME280;59604;52.138;5.446;2022-09-27T03:00:53;99875.59;;;8.46;95.95
71768;BME280;59604;52.138;5.446;2022-09-27T03:03:33;99884.50;;;8.45;95.92
71768;BME280;59604;52.138;5.446;2022-09-27T03:06:05;99878.22;;;8.40;95.73
71768;BME280;59604;52.138;5.446;2022-09-27T03:08:33;99874.97;;;8.38;95.80
71768;BME280;59604;52.138;5.446;2022-09-27T03:10:59;99876.81;;;8.37;95.80
71768;BME280;59604;52.138;5.446;2022-09-27T03:13:26;99882.06;;;8.37;96.07
71768;BME280;59604;52.138;5.446;2022-09-27T03:15:53;99871.72;;;8.36;96.34
71768;BME280;59604;52.138;5.446;2022-09-27T03:18:25;99876.97;;;8.36;96.42
71768;BME280;59604;52.138;5.446;2022-09-27T03:20:52;99870.91;;;8.35;96.33
71768;BME280;59604;52.138;5.446;2022-09-27T03:23:19;99872.53;;;8.36;96.21
71768;BME280;59604;52.138;5.446;2022-09-27T03:25:46;99869.91;;;8.36;96.30
71768;BME280;59604;52.138;5.446;2022-09-27T03:28:13;99864.50;;;8.38;96.37
71768;BME280;59604;52.138;5.446;2022-09-27T03:30:40;99867.75;;;8.40;96.40
71768;BME280;59604;52.138;5.446;2022-09-27T03:33:07;99875.41;;;8.41;96.40
71768;BME280;59604;52.138;5.446;2022-09-27T03:35:37;99880.66;;;8.41;96.46
71768;BME280;59604;52.138;5.446;2022-09-27T03:38:04;99878.84;;;8.42;96.02
71768;BME280;59604;52.138;5.446;2022-09-27T03:40:32;99880.66;;;8.41;96.32
71768;BME280;59604;52.138;5.446;2022-09-27T03:42:59;99876.41;;;8.40;96.25
71768;BME280;59604;52.138;5.446;2022-09-27T03:45:25;99876.97;;;8.36;96.22
71768;BME280;59604;52.138;5.446;2022-09-27T03:47:52;99883.22;;;8.35;96.31
71768;BME280;59604;52.138;5.446;2022-09-27T03:50:20;99876.97;;;8.36;96.35
71768;BME280;59604;52.138;5.446;2022-09-27T03:52:47;99880.78;;;8.33;96.10
71768;BME280;59604;52.138;5.446;2022-09-27T03:55:13;99880.00;;;8.33;96.34
71768;BME280;59604;52.138;5.446;2022-09-27T03:57:43;99883.41;;;8.33;95.97
71768;BME280;59604;52.138;5.446;2022-09-27T04:00:11;99887.63;;;8.28;95.89
71768;BME280;59604;52.138;5.446;2022-09-27T04:02:37;99884.19;;;8.27;96.03
71768;BME280;59604;52.138;5.446;2022-09-27T04:05:04;99893.09;;;8.26;95.95
71768;BME280;59604;52.138;5.446;2022-09-27T04:07:31;99880.56;;;8.21;95.81
71768;BME280;59604;52.138;5.446;2022-09-27T04:09:57;99892.44;;;8.17;96.16
71768;BME280;59604;52.138;5.446;2022-09-27T04:12:24;99888.41;;;8.15;96.00
71768;BME280;59604;52.138;5.446;2022-09-27T04:14:50;99891.19;;;8.13;96.07
71768;BME280;59604;52.138;5.446;2022-09-27T04:17:17;99892.03;;;8.14;96.07
71768;BME280;59604;52.138;5.446;2022-09-27T04:19:43;99890.38;;;8.13;95.96
71768;BME280;59604;52.138;5.446;2022-09-27T04:22:10;99887.97;;;8.11;96.02
71768;BME280;59604;52.138;5.446;2022-09-27T04:24:36;99881.13;;;8.10;96.09
71768;BME280;59604;52.138;5.446;2022-09-27T04:27:03;99891.41;;;8.12;96.16
71768;BME280;59604;52.138;5.446;2022-09-27T04:29:29;99887.16;;;8.11;96.05
71768;BME280;59604;52.138;5.446;2022-09-27T04:31:57;99887.97;;;8.11;96.21
71768;BME280;59604;52.138;5.446;2022-09-27T04:34:23;99883.13;;;8.08;96.00
71768;BME280;59604;52.138;5.446;2022-09-27T04:37:11;99890.97;;;8.08;96.15
71768;BME280;59604;52.138;5.446;2022-09-27T04:39:38;99896.22;;;8.08;96.11
71768;BME280;59604;52.138;5.446;2022-09-27T04:42:05;99893.81;;;8.07;96.17
71768;BME280;59604;52.138;5.446;2022-09-27T04:44:31;99898.22;;;8.06;96.01
71768;BME280;59604;52.138;5.446;2022-09-27T04:46:58;99895.59;;;8.06;95.83
71768;BME280;59604;52.138;5.446;2022-09-27T04:49:24;99905.91;;;8.08;96.28
71768;BME280;59604;52.138;5.446;2022-09-27T04:51:51;99895.81;;;8.05;96.37
71768;BME280;59604;52.138;5.446;2022-09-27T04:54:17;99900.84;;;8.06;96.03
71768;BME280;59604;52.138;5.446;2022-09-27T04:56:44;99899.44;;;8.04;96.28
71768;BME280;59604;52.138;5.446;2022-09-27T04:59:10;99909.94;;;8.04;96.22
71768;BME280;59604;52.138;5.446;2022-09-27T05:01:37;99905.66;;;8.03;96.15
71768;BME280;59604;52.138;5.446;2022-09-27T05:04:04;99902.66;;;8.06;96.30
71768;BME280;59604;52.138;5.446;2022-09-27T05:06:31;99910.34;;;8.07;96.34
71768;BME280;59604;52.138;5.446;2022-09-27T05:08:57;99913.41;;;8.11;96.31
71768;BME280;59604;52.138;5.446;2022-09-27T05:11:24;99905.31;;;8.12;96.61
71768;BME280;59604;52.138;5.446;2022-09-27T05:13:51;99904.13;;;8.15;96.50
71768;BME280;59604;52.138;5.446;2022-09-27T05:16:18;99904.13;;;8.15;96.59
71768;BME280;59604;52.138;5.446;2022-09-27T05:18:45;99908.56;;;8.14;96.73
71768;BME280;59604;52.138;5.446;2022-09-27T05:21:12;99905.16;;;8.14;96.66
71768;BME280;59604;52.138;5.446;2022-09-27T05:23:38;99902.53;;;8.14;96.78
71768;BME280;59604;52.138;5.446;2022-09-27T05:26:08;99909.38;;;8.15;96.58
71768;BME280;59604;52.138;5.446;2022-09-27T05:28:35;99912.59;;;8.17;96.90
71768;BME280;59604;52.138;5.446;2022-09-27T05:31:01;99912.03;;;8.21;97.01
71768;BME280;59604;52.138;5.446;2022-09-27T05:33:28;99906.59;;;8.23;96.82
71768;BME280;59604;52.138;5.446;2022-09-27T05:35:56;99906.16;;;8.19;96.73
71768;BME280;59604;52.138;5.446;2022-09-27T05:38:24;99905.75;;;8.16;96.66
71768;BME280;59604;52.138;5.446;2022-09-27T05:40:51;99907.75;;;8.14;96.73
71768;BME280;59604;52.138;5.446;2022-09-27T05:43:17;99907.94;;;8.12;96.90
71768;BME280;59604;52.138;5.446;2022-09-27T05:45:45;99915.81;;;8.12;96.87
71768;BME280;59604;52.138;5.446;2022-09-27T05:48:12;99921.69;;;8.14;96.81
71768;BME280;59604;52.138;5.446;2022-09-27T05:50:43;99922.28;;;8.16;96.83
71768;BME280;59604;52.138;5.446;2022-09-27T05:53:10;99921.91;;;8.19;96.90
71768;BME280;59604;52.138;5.446;2022-09-27T05:55:38;99924.75;;;8.24;97.22
71768;BME280;59604;52.138;5.446;2022-09-27T05:58:06;99926.00;;;8.29;97.08
71768;BME280;59604;52.138;5.446;2022-09-27T06:00:33;99920.75;;;8.35;97.36
71768;BME280;59604;52.138;5.446;2022-09-27T06:03:03;99924.25;;;8.42;97.47
71768;BME280;59604;52.138;5.446;2022-09-27T06:05:34;99923.47;;;8.49;97.57
71768;BME280;59604;52.138;5.446;2022-09-27T06:08:04;99924.47;;;8.54;97.75
71768;BME280;59604;52.138;5.446;2022-09-27T06:10:31;99920.50;;;8.58;97.51
71768;BME280;59604;52.138;5.446;2022-09-27T06:13:01;99917.84;;;8.65;97.59
71768;BME280;59604;52.138;5.446;2022-09-27T06:15:30;99911.22;;;8.76;97.84
71768;BME280;59604;52.138;5.446;2022-09-27T06:18:02;99904.78;;;8.85;97.33
71768;BME280;59604;52.138;5.446;2022-09-27T06:20:29;99919.53;;;8.86;96.82
71768;BME280;59604;52.138;5.446;2022-09-27T06:23:15;99926.19;;;8.82;96.73
71768;BME280;59604;52.138;5.446;2022-09-27T06:25:44;99940.34;;;8.81;96.65
71768;BME280;59604;52.138;5.446;2022-09-27T06:28:12;99940.91;;;8.76;96.54
71768;BME280;59604;52.138;5.446;2022-09-27T06:30:41;99941.34;;;8.73;96.83
71768;BME280;59604;52.138;5.446;2022-09-27T06:33:11;99944.75;;;8.74;96.98
71768;BME280;59604;52.138;5.446;2022-09-27T06:35:39;99940.72;;;8.78;97.16
71768;BME280;59604;52.138;5.446;2022-09-27T06:38:08;99944.56;;;8.82;97.21
71768;BME280;59604;52.138;5.446;2022-09-27T06:40:36;99943.38;;;8.84;97.35
71768;BME280;59604;52.138;5.446;2022-09-27T06:43:08;99951.47;;;8.89;97.46
71768;BME280;59604;52.138;5.446;2022-09-27T06:45:36;99942.19;;;8.93;97.30
71768;BME280;59604;52.138;5.446;2022-09-27T06:48:08;99950.47;;;8.97;97.04
71768;BME280;59604;52.138;5.446;2022-09-27T06:50:36;99953.13;;;9.04;97.28
71768;BME280;59604;52.138;5.446;2022-09-27T06:53:04;99951.09;;;9.12;97.23
71768;BME280;59604;52.138;5.446;2022-09-27T06:55:32;99955.34;;;9.20;97.31
71768;BME280;59604;52.138;5.446;2022-09-27T06:58:00;99973.38;;;9.30;97.31
71768;BME280;59604;52.138;5.446;2022-09-27T07:00:49;99964.88;;;9.34;97.13
71768;BME280;59604;52.138;5.446;2022-09-27T07:03:16;99962.44;;;9.33;96.72
71768;BME280;59604;52.138;5.446;2022-09-27T07:05:42;99965.88;;;9.27;96.54
71768;BME280;59604;52.138;5.446;2022-09-27T07:08:09;99962.03;;;9.23;96.29
71768;BME280;59604;52.138;5.446;2022-09-27T07:10:38;99970.72;;;9.23;96.51
71768;BME280;59604;52.138;5.446;2022-09-27T07:13:07;99964.06;;;9.21;96.34
71768;BME280;59604;52.138;5.446;2022-09-27T07:15:35;99965.47;;;9.23;96.73
71768;BME280;59604;52.138;5.446;2022-09-27T07:18:03;99967.69;;;9.26;97.07
71768;BME280;59604;52.138;5.446;2022-09-27T07:20:30;99967.50;;;9.34;96.76
71768;BME280;59604;52.138;5.446;2022-09-27T07:22:58;99970.75;;;9.43;96.57
71768;BME280;59604;52.138;5.446;2022-09-27T07:25:24;99969.53;;;9.52;96.94
71768;BME280;59604;52.138;5.446;2022-09-27T07:27:51;99962.84;;;9.56;96.83
71768;BME280;59604;52.138;5.446;2022-09-27T07:30:19;99964.50;;;9.57;96.71
71768;BME280;59604;52.138;5.446;2022-09-27T07:32:47;99973.16;;;9.64;97.01
71768;BME280;59604;52.138;5.446;2022-09-27T07:35:13;99980.25;;;9.77;96.93
71768;BME280;59604;52.138;5.446;2022-09-27T07:37:41;99985.28;;;9.92;96.85
71768;BME280;59604;52.138;5.446;2022-09-27T07:40:08;99978.00;;;10.01;96.44
71768;BME280;59604;52.138;5.446;2022-09-27T07:42:35;99986.91;;;10.06;96.12
71768;BME280;59604;52.138;5.446;2022-09-27T07:45:07;99988.09;;;10.04;95.74
71768;BME280;59604;52.138;5.446;2022-09-27T07:47:34;99978.81;;;9.95;95.64
71768;BME280;59604;52.138;5.446;2022-09-27T07:50:04;99983.88;;;9.89;95.68
71768;BME280;59604;52.138;5.446;2022-09-27T07:52:41;99983.47;;;9.86;96.02
71768;BME280;59604;52.138;5.446;2022-09-27T07:55:09;99984.09;;;9.81;95.66
71768;BME280;59604;52.138;5.446;2022-09-27T07:57:36;99985.91;;;9.81;96.00
71768;BME280;59604;52.138;5.446;2022-09-27T08:00:09;99991.19;;;9.81;96.48
71768;BME280;59604;52.138;5.446;2022-09-27T08:02:36;99989.34;;;9.81;96.25
71768;BME280;59604;52.138;5.446;2022-09-27T08:05:03;99991.19;;;9.81;96.21
71768;BME280;59604;52.138;5.446;2022-09-27T08:07:29;99993.41;;;9.84;96.69
71768;BME280;59604;52.138;5.446;2022-09-27T08:09:58;99998.84;;;9.89;96.74
71768;BME280;59604;52.138;5.446;2022-09-27T08:12:24;99997.25;;;9.95;96.92
71768;BME280;59604;52.138;5.446;2022-09-27T08:14:51;100000.88;;;10.00;96.94
71768;BME280;59604;52.138;5.446;2022-09-27T08:17:18;100000.06;;;10.06;96.57
71768;BME280;59604;52.138;5.446;2022-09-27T08:19:44;100000.63;;;10.15;96.61
71768;BME280;59604;52.138;5.446;2022-09-27T08:22:13;100002.47;;;10.21;96.39
71768;BME280;59604;52.138;5.446;2022-09-27T08:24:40;100001.47;;;10.29;96.47
71768;BME280;59604;52.138;5.446;2022-09-27T08:27:06;100009.34;;;10.42;96.07
71768;BME280;59604;52.138;5.446;2022-09-27T08:29:37;100004.81;;;10.49;95.93
71768;BME280;59604;52.138;5.446;2022-09-27T08:32:10;100006.44;;;10.57;96.06
71768;BME280;59604;52.138;5.446;2022-09-27T08:34:37;100009.44;;;10.67;95.67
71768;BME280;59604;52.138;5.446;2022-09-27T08:37:04;100013.66;;;10.75;94.82
71768;BME280;59604;52.138;5.446;2022-09-27T08:39:30;100009.16;;;10.82;94.64
71768;BME280;59604;52.138;5.446;2022-09-27T08:45:06;100024.56;;;10.78;94.03
71768;BME280;59604;52.138;5.446;2022-09-27T08:47:38;100023.59;;;10.73;93.99
71768;BME280;59604;52.138;5.446;2022-09-27T08:50:17;100029.31;;;10.63;93.50
71768;BME280;59604;52.138;5.446;2022-09-27T08:53:11;100025.28;;;10.54;93.80
71768;BME280;59604;52.138;5.446;2022-09-27T08:55:44;100033.38;;;10.52;94.23
71768;BME280;59604;52.138;5.446;2022-09-27T08:58:31;100025.13;;;10.42;92.87
71768;BME280;59604;52.138;5.446;2022-09-27T09:01:02;100023.09;;;10.37;92.66
71768;BME280;59604;52.138;5.446;2022-09-27T09:03:35;100023.91;;;10.38;92.93
71768;BME280;59604;52.138;5.446;2022-09-27T09:11:46;100019.63;;;10.50;93.58
71768;BME280;59604;52.138;5.446;2022-09-27T09:15:02;100016.16;;;10.56;94.13
71768;BME280;59604;52.138;5.446;2022-09-27T09:21:03;100025.03;;;10.75;94.38
71768;BME280;59604;52.138;5.446;2022-09-27T09:26:34;100030.69;;;10.72;93.57
71768;BME280;59604;52.138;5.446;2022-09-27T09:36:53;100037.41;;;10.61;92.46
71768;BME280;59604;52.138;5.446;2022-09-27T09:39:31;100041.88;;;10.61;91.30
71768;BME280;59604;52.138;5.446;2022-09-27T09:42:08;100037.03;;;10.58;91.90
71768;BME280;59604;52.138;5.446;2022-09-27T09:44:45;100043.09;;;10.65;91.72
71768;BME280;59604;52.138;5.446;2022-09-27T09:49:57;100043.47;;;10.69;91.64
71768;BME280;59604;52.138;5.446;2022-09-27T09:52:35;100051.56;;;10.74;91.63
71768;BME280;59604;52.138;5.446;2022-09-27T09:55:20;100047.88;;;10.81;91.30
71768;BME280;59604;52.138;5.446;2022-09-27T10:00:38;100052.31;;;10.87;90.83
71768;BME280;59604;52.138;5.446;2022-09-27T10:03:05;100047.22;;;10.93;90.71
71768;BME280;59604;52.138;5.446;2022-09-27T10:05:33;100054.72;;;10.96;90.90
71768;BME280;59604;52.138;5.446;2022-09-27T10:08:03;100054.84;;;11.07;90.77
71768;BME280;59604;52.138;5.446;2022-09-27T10:10:32;100056.28;;;11.10;90.39
71768;BME280;59604;52.138;5.446;2022-09-27T10:13:01;100057.44;;;11.21;89.56
71768;BME280;59604;52.138;5.446;2022-09-27T10:15:29;100060.66;;;11.23;89.30
71768;BME280;59604;52.138;5.446;2022-09-27T10:17:57;100050.13;;;11.23;88.78
71768;BME280;59604;52.138;5.446;2022-09-27T10:20:32;100053.34;;;11.25;88.49
71768;BME280;59604;52.138;5.446;2022-09-27T10:23:21;100054.81;;;11.21;88.66
71768;BME280;59604;52.138;5.446;2022-09-27T10:26:02;100052.81;;;11.16;88.96
71768;BME280;59604;52.138;5.446;2022-09-27T10:28:36;100051.38;;;11.13;88.35
71768;BME280;59604;52.138;5.446;2022-09-27T10:31:06;100053.59;;;11.17;88.64
71768;BME280;59604;52.138;5.446;2022-09-27T10:33:34;100047.16;;;11.12;88.63
71768;BME280;59604;52.138;5.446;2022-09-27T10:36:02;100041.66;;;11.14;89.23
71768;BME280;59604;52.138;5.446;2022-09-27T10:38:31;100055.22;;;11.18;89.21
71768;BME280;59604;52.138;5.446;2022-09-27T10:41:19;100053.59;;;11.23;88.91
71768;BME280;59604;52.138;5.446;2022-09-27T10:43:47;100040.59;;;11.22;89.26
71768;BME280;59604;52.138;5.446;2022-09-27T10:46:23;100039.94;;;11.26;89.20
71768;BME280;59604;52.138;5.446;2022-09-27T10:49:17;100051.88;;;11.35;89.13
71768;BME280;59604;52.138;5.446;2022-09-27T10:51:49;100047.38;;;11.43;89.21
71768;BME280;59604;52.138;5.446;2022-09-27T10:54:32;100042.06;;;11.49;88.68
71768;BME280;59604;52.138;5.446;2022-09-27T10:59:41;100039.66;;;11.73;87.80
71768;BME280;59604;52.138;5.446;2022-09-27T11:02:20;100040.81;;;11.83;88.00
71768;BME280;59604;52.138;5.446;2022-09-27T11:07:56;100053.75;;;11.92;87.44
71768;BME280;59604;52.138;5.446;2022-09-27T11:10:32;100054.34;;;11.94;86.04
71768;BME280;59604;52.138;5.446;2022-09-27T11:22:23;100055.72;;;11.71;86.06
71768;BME280;59604;52.138;5.446;2022-09-27T11:27:45;100063.88;;;11.63;86.78
71768;BME280;59604;52.138;5.446;2022-09-27T11:30:19;100056.56;;;11.65;87.18
71768;BME280;59604;52.138;5.446;2022-09-27T11:33:17;100069.91;;;11.70;87.24
71768;BME280;59604;52.138;5.446;2022-09-27T11:41:30;100063.81;;;11.70;86.62
71768;BME280;59604;52.138;5.446;2022-09-27T11:44:25;100059.41;;;11.64;87.10
71768;BME280;59604;52.138;5.446;2022-09-27T11:53:05;100061.19;;;11.70;86.59
71768;BME280;59604;52.138;5.446;2022-09-27T11:56:05;100050.84;;;11.68;86.32
71768;BME280;59604;52.138;5.446;2022-09-27T12:01:37;100047.34;;;11.74;86.01
71768;BME280;59604;52.138;5.446;2022-09-27T12:04:30;100044.47;;;11.82;86.13
71768;BME280;59604;52.138;5.446;2022-09-27T12:07:10;100036.97;;;11.86;86.02
71768;BME280;59604;52.138;5.446;2022-09-27T12:09:47;100042.34;;;11.98;86.38
71768;BME280;59604;52.138;5.446;2022-09-27T12:12:23;100043.19;;;11.92;84.87
71768;BME280;59604;52.138;5.446;2022-09-27T12:15:02;100038.84;;;11.72;85.57
71768;BME280;59604;52.138;5.446;2022-09-27T12:17:35;100046.66;;;11.60;85.17
71768;BME280;59604;52.138;5.446;2022-09-27T12:20:18;100036.34;;;11.52;85.78
71768;BME280;59604;52.138;5.446;2022-09-27T12:23:06;100051.03;;;11.42;85.73
71768;BME280;59604;52.138;5.446;2022-09-27T12:25:38;100054.34;;;11.30;85.83
71768;BME280;59604;52.138;5.446;2022-09-27T12:28:25;100065.75;;;11.18;86.17
71768;BME280;59604;52.138;5.446;2022-09-27T12:31:04;100062.97;;;11.06;86.70
71768;BME280;59604;52.138;5.446;2022-09-27T12:33:56;100056.13;;;10.98;87.09
71768;BME280;59604;52.138;5.446;2022-09-27T12:36:31;100062.63;;;10.89;87.47
71768;BME280;59604;52.138;5.446;2022-09-27T12:39:24;100067.31;;;10.87;87.96
71768;BME280;59604;52.138;5.446;2022-09-27T12:41:57;100063.09;;;10.79;88.59
71768;BME280;59604;52.138;5.446;2022-09-27T12:44:36;100062.31;;;10.72;88.44
71768;BME280;59604;52.138;5.446;2022-09-27T12:53:34;100063.53;;;10.56;88.37
71768;BME280;59604;52.138;5.446;2022-09-27T12:58:56;100057.88;;;10.53;89.41
71768;BME280;59604;52.138;5.446;2022-09-27T13:12:29;100049.56;;;10.56;88.28
71768;BME280;59604;52.138;5.446;2022-09-27T13:15:05;100044.13;;;10.57;88.53
71768;BME280;59604;52.138;5.446;2022-09-27T13:22:53;100039.84;;;10.63;88.44
71768;BME280;59604;52.138;5.446;2022-09-27T13:33:47;100034.03;;;10.93;88.22
71768;BME280;59604;52.138;5.446;2022-09-27T13:41:51;100036.94;;;11.54;87.05
71768;BME280;59604;52.138;5.446;2022-09-27T13:44:25;100034.44;;;11.66;85.69
71768;BME280;59604;52.138;5.446;2022-09-27T13:47:02;100031.47;;;11.81;85.06
71768;BME280;59604;52.138;5.446;2022-09-27T13:49:38;100024.34;;;11.88;84.52
71768;BME280;59604;52.138;5.446;2022-09-27T13:54:56;100011.50;;;12.17;82.89
71768;BME280;59604;52.138;5.446;2022-09-27T13:57:55;100017.22;;;12.32;82.42
71768;BME280;59604;52.138;5.446;2022-09-27T14:00:32;100007.69;;;12.49;82.07
71768;BME280;59604;52.138;5.446;2022-09-27T14:05:48;100001.81;;;12.66;81.19
71768;BME280;59604;52.138;5.446;2022-09-27T14:08:29;99995.91;;;12.52;80.18
71768;BME280;59604;52.138;5.446;2022-09-27T14:10:58;99997.34;;;12.48;80.56
71768;BME280;59604;52.138;5.446;2022-09-27T14:13:26;100001.81;;;12.47;80.67
71768;BME280;59604;52.138;5.446;2022-09-27T14:15:54;100003.34;;;12.37;80.60
71768;BME280;59604;52.138;5.446;2022-09-27T14:18:23;100003.66;;;12.28;80.38
71768;BME280;59604;52.138;5.446;2022-09-27T14:20:51;99994.56;;;12.24;79.21
71768;BME280;59604;52.138;5.446;2022-09-27T14:23:23;100000.19;;;12.09;80.92
71768;BME280;59604;52.138;5.446;2022-09-27T14:25:52;99991.97;;;11.99;80.64
71768;BME280;59604;52.138;5.446;2022-09-27T14:31:16;99988.94;;;11.96;84.21
71768;BME280;59604;52.138;5.446;2022-09-27T14:33:44;99998.28;;;11.98;83.72
71768;BME280;59604;52.138;5.446;2022-09-27T14:36:24;99986.38;;;12.07;83.87
71768;BME280;59604;52.138;5.446;2022-09-27T14:39:33;99991.03;;;12.12;83.52
71768;BME280;59604;52.138;5.446;2022-09-27T14:42:04;99986.91;;;11.98;82.97
71768;BME280;59604;52.138;5.446;2022-09-27T14:44:31;99995.09;;;11.90;82.47
71768;BME280;59604;52.138;5.446;2022-09-27T14:47:21;99991.69;;;11.82;83.72
71768;BME280;59604;52.138;5.446;2022-09-27T14:49:54;99981.75;;;11.78;84.02
71768;BME280;59604;52.138;5.446;2022-09-27T14:52:23;99981.50;;;11.61;84.85
71768;BME280;59604;52.138;5.446;2022-09-27T14:54:58;99977.47;;;11.58;84.84
71768;BME280;59604;52.138;5.446;2022-09-27T14:57:30;99977.84;;;11.62;86.09
71768;BME280;59604;52.138;5.446;2022-09-27T15:00:33;99978.06;;;11.60;85.75
71768;BME280;59604;52.138;5.446;2022-09-27T15:03:04;99972.28;;;11.70;85.56
71768;BME280;59604;52.138;5.446;2022-09-27T15:05:32;99977.53;;;11.77;86.58
71768;BME280;59604;52.138;5.446;2022-09-27T15:08:04;99970.59;;;11.82;86.94
71768;BME280;59604;52.138;5.446;2022-09-27T15:10:33;99974.63;;;11.85;86.13
71768;BME280;59604;52.138;5.446;2022-09-27T15:13:01;99977.09;;;11.80;85.76
71768;BME280;59604;52.138;5.446;2022-09-27T15:15:35;99975.91;;;11.76;86.56
71768;BME280;59604;52.138;5.446;2022-09-27T15:18:40;99978.31;;;11.77;86.85
71768;BME280;59604;52.138;5.446;2022-09-27T15:21:11;99975.31;;;11.74;86.70
71768;BME280;59604;52.138;5.446;2022-09-27T15:23:40;99984.72;;;11.63;86.65
71768;BME280;59604;52.138;5.446;2022-09-27T15:26:16;99974.69;;;11.53;85.74
71768;BME280;59604;52.138;5.446;2022-09-27T15:28:45;99973.75;;;11.41;86.45
71768;BME280;59604;52.138;5.446;2022-09-27T15:31:13;99964.44;;;11.39;87.17
71768;BME280;59604;52.138;5.446;2022-09-27T15:33:41;99959.75;;;11.41;87.46
71768;BME280;59604;52.138;5.446;2022-09-27T15:39:17;99953.69;;;11.40;86.84
71768;BME280;59604;52.138;5.446;2022-09-27T15:44:56;99948.06;;;11.30;87.01
71768;BME280;59604;52.138;5.446;2022-09-27T15:52:41;99939.69;;;11.08;88.05
71768;BME280;59604;52.138;5.446;2022-09-27T15:55:12;99942.81;;;10.98;87.83
71768;BME280;59604;52.138;5.446;2022-09-27T15:57:39;99942.44;;;10.95;88.69
71768;BME280;59604;52.138;5.446;2022-09-27T16:00:12;99941.00;;;10.99;89.29
71768;BME280;59604;52.138;5.446;2022-09-27T16:02:39;99935.50;;;11.00;89.07
71768;BME280;59604;52.138;5.446;2022-09-27T16:05:06;99940.34;;;11.03;88.93
71768;BME280;59604;52.138;5.446;2022-09-27T16:07:33;99936.31;;;11.01;89.47